createdAt,value
2019-05-02T00:02:28.877Z,11.62
2019-05-02T00:04:57.686Z,11.52
2019-05-02T00:07:28.595Z,11.69
2019-05-02T00:09:59.523Z,11.69
2019-05-02T00:12:30.431Z,11.60
2019-05-02T00:15:03.382Z,10.92
2019-05-02T00:17:35.807Z,10.64
2019-05-02T00:20:09.512Z,11.17
2019-05-02T00:22:40.458Z,11.29
2019-05-02T00:25:16.049Z,11.34
2019-05-02T00:27:43.992Z,11.10
2019-05-02T00:30:15.470Z,11.13
2019-05-02T00:32:46.380Z,11.14
2019-05-02T00:35:17.298Z,10.86
2019-05-02T00:37:48.227Z,10.61
2019-05-02T00:40:20.269Z,10.94
2019-05-02T00:42:53.182Z,10.66
2019-05-02T00:45:25.941Z,10.59
2019-05-02T00:47:58.981Z,10.69
2019-05-02T00:50:31.545Z,10.60
2019-05-02T00:53:02.455Z,10.79
2019-05-02T00:55:35.447Z,10.98
2019-05-02T00:58:06.394Z,10.83
2019-05-02T01:00:41.463Z,10.42
2019-05-02T01:03:16.221Z,10.31
2019-05-02T01:05:44.985Z,10.36
2019-05-02T01:08:15.894Z,10.49
2019-05-02T01:10:46.827Z,10.74
2019-05-02T01:13:19.121Z,10.19
2019-05-02T01:15:50.240Z,10.49
2019-05-02T01:18:22.782Z,10.49
2019-05-02T01:20:58.094Z,10.61
2019-05-02T01:23:27.569Z,10.72
2019-05-02T01:25:59.113Z,10.32
2019-05-02T01:28:49.161Z,10.53
2019-05-02T01:31:21.924Z,10.56
2019-05-02T01:33:54.464Z,9.85
2019-05-02T01:36:43.202Z,9.97
2019-05-02T01:39:14.123Z,9.88
2019-05-02T01:41:45.047Z,9.92
2019-05-02T01:44:15.952Z,9.79
2019-05-02T01:46:46.874Z,9.57
2019-05-02T01:49:21.815Z,10.10
2019-05-02T01:51:50.421Z,9.94
2019-05-02T01:54:21.323Z,10.07
2019-05-02T01:56:52.258Z,10.28
2019-05-02T01:59:23.194Z,10.17
2019-05-02T02:01:57.953Z,10.31
2019-05-02T02:04:26.727Z,10.29
2019-05-02T02:06:57.661Z,9.97
2019-05-02T02:09:28.566Z,9.61
2019-05-02T02:11:59.485Z,9.63
2019-05-02T02:14:30.392Z,9.57
2019-05-02T02:17:01.283Z,9.64
2019-05-02T02:19:39.116Z,9.90
2019-05-02T02:22:10.764Z,10.13
2019-05-02T02:24:43.310Z,10.34
2019-05-02T02:27:14.220Z,10.31
2019-05-02T02:29:45.372Z,9.99
2019-05-02T02:32:20.010Z,10.02
2019-05-02T02:34:48.939Z,9.95
2019-05-02T02:37:19.858Z,9.91
2019-05-02T02:39:54.136Z,10.05
2019-05-02T02:42:24.925Z,9.96
2019-05-02T02:44:57.630Z,9.73
2019-05-02T02:47:28.791Z,10.17
2019-05-02T02:50:02.758Z,10.18
2019-05-02T02:52:38.096Z,10.06
2019-05-02T02:55:07.191Z,9.90
2019-05-02T02:57:38.115Z,10.06
2019-05-02T03:00:11.068Z,10.08
2019-05-02T03:02:47.634Z,10.24
2019-05-02T03:05:18.974Z,10.44
2019-05-02T03:07:46.876Z,10.39
2019-05-02T03:10:17.779Z,10.36
2019-05-02T03:13:06.673Z,10.44
2019-05-02T03:15:39.217Z,10.12
2019-05-02T03:18:10.121Z,10.14
2019-05-02T03:20:42.128Z,10.10
2019-05-02T03:23:15.324Z,10.21
2019-05-02T03:25:50.872Z,10.13
2019-05-02T03:28:20.960Z,10.09
2019-05-02T03:30:51.893Z,10.16
2019-05-02T03:33:22.811Z,10.09
2019-05-02T03:35:53.751Z,10.04
2019-05-02T03:38:32.160Z,10.06
2019-05-02T03:40:57.240Z,10.18
2019-05-02T03:43:28.170Z,9.90
2019-05-02T03:45:59.047Z,9.62
2019-05-02T03:48:30.241Z,9.86
2019-05-02T03:51:04.897Z,10.14
2019-05-02T03:53:33.847Z,10.28
2019-05-02T03:56:10.583Z,10.35
2019-05-02T03:58:38.957Z,10.16
2019-05-02T04:01:09.864Z,10.03
2019-05-02T04:03:43.473Z,10.16
2019-05-02T04:06:21.275Z,10.26
2019-05-02T04:08:46.543Z,10.16
2019-05-02T04:11:21.011Z,9.94
2019-05-02T04:13:52.682Z,10.06
2019-05-02T04:16:23.920Z,10.07
2019-05-02T04:18:58.260Z,10.28
2019-05-02T04:21:28.912Z,10.10
2019-05-02T04:24:12.856Z,10.10
2019-05-02T04:26:32.490Z,10.08
2019-05-02T04:29:03.384Z,10.06
2019-05-02T04:31:34.322Z,10.26
2019-05-02T04:34:13.695Z,10.08
2019-05-02T04:36:37.816Z,10.29
2019-05-02T04:39:15.137Z,10.32
2019-05-02T04:41:42.447Z,10.37
2019-05-02T04:44:13.647Z,10.24
2019-05-02T04:46:44.561Z,10.21
2019-05-02T04:49:19.993Z,10.19
2019-05-02T04:51:59.900Z,10.23
2019-05-02T04:54:25.736Z,10.23
2019-05-02T04:56:55.488Z,10.18
2019-05-02T04:59:28.471Z,10.13
2019-05-02T05:02:01.276Z,10.08
2019-05-02T05:04:33.179Z,10.08
2019-05-02T05:07:04.416Z,10.18
2019-05-02T05:09:35.337Z,10.13
2019-05-02T05:12:07.161Z,10.13
2019-05-02T05:14:39.249Z,10.19
2019-05-02T05:17:09.896Z,9.97
2019-05-02T05:19:40.798Z,10.24
2019-05-02T05:22:12.151Z,10.23
2019-05-02T05:24:44.741Z,10.22
2019-05-02T05:27:18.957Z,10.20
2019-05-02T05:29:48.687Z,10.07
2019-05-02T05:32:19.757Z,10.14
2019-05-02T05:34:50.666Z,10.18
2019-05-02T05:37:21.732Z,9.91
2019-05-02T05:39:53.923Z,10.00
2019-05-02T05:42:30.193Z,10.10
2019-05-02T05:44:58.324Z,10.02
2019-05-02T05:47:28.605Z,9.93
2019-05-02T05:50:01.201Z,10.02
2019-05-02T05:52:33.011Z,9.98
2019-05-02T05:55:07.860Z,10.05
2019-05-02T05:57:38.865Z,10.09
2019-05-02T06:00:15.917Z,10.01
2019-05-02T06:02:52.722Z,9.98
2019-05-02T06:05:17.070Z,10.10
2019-05-02T06:07:47.805Z,10.16
2019-05-02T06:10:18.708Z,10.17
2019-05-02T06:12:49.641Z,10.29
2019-05-02T06:15:20.550Z,10.05
2019-05-02T06:17:51.473Z,10.14
2019-05-02T06:20:25.678Z,10.19
2019-05-02T06:22:59.950Z,9.97
2019-05-02T06:25:34.277Z,10.13
2019-05-02T06:28:05.474Z,10.21
2019-05-02T06:30:34.086Z,10.17
2019-05-02T06:33:05.050Z,10.19
2019-05-02T06:35:35.959Z,10.23
2019-05-02T06:38:06.859Z,10.28
2019-05-02T06:40:39.279Z,10.32
2019-05-02T06:43:11.419Z,10.20
2019-05-02T06:45:42.500Z,10.25
2019-05-02T06:48:17.739Z,10.31
2019-05-02T06:50:47.195Z,10.12
2019-05-02T06:53:18.132Z,10.18
2019-05-02T06:55:49.034Z,10.24
2019-05-02T06:58:19.962Z,10.25
2019-05-02T07:00:58.442Z,10.35
2019-05-02T07:03:23.582Z,10.40
2019-05-02T07:05:58.695Z,10.29
2019-05-02T07:08:27.350Z,10.40
2019-05-02T07:11:01.276Z,10.57
2019-05-02T07:13:30.887Z,10.57
2019-05-02T07:16:03.442Z,10.63
2019-05-02T07:18:41.987Z,10.59
2019-05-02T07:21:12.146Z,10.49
2019-05-02T07:23:48.700Z,10.35
2019-05-02T07:26:21.091Z,10.47
2019-05-02T07:28:49.683Z,10.36
2019-05-02T07:31:20.588Z,10.44
2019-05-02T07:33:51.490Z,10.35
2019-05-02T07:36:22.397Z,10.20
2019-05-02T07:38:57.589Z,10.29
2019-05-02T07:41:28.930Z,10.35
2019-05-02T07:43:58.558Z,10.39
2019-05-02T07:46:29.553Z,10.50
2019-05-02T07:49:00.450Z,10.50
2019-05-02T07:51:31.374Z,10.50
2019-05-02T07:54:02.299Z,10.56
2019-05-02T07:56:33.489Z,10.57
2019-05-02T07:59:04.241Z,10.55
2019-05-02T08:01:35.172Z,10.53
2019-05-02T08:04:11.274Z,10.54
2019-05-02T08:06:40.244Z,10.40
2019-05-02T08:09:11.270Z,10.37
2019-05-02T08:11:42.202Z,10.43
2019-05-02T08:14:13.574Z,10.53
2019-05-02T08:16:44.492Z,10.54
2019-05-02T08:19:15.404Z,10.59
2019-05-02T08:21:46.314Z,10.53
2019-05-02T08:24:17.214Z,10.63
2019-05-02T08:26:53.560Z,10.51
2019-05-02T08:29:28.782Z,10.65
2019-05-02T08:31:58.070Z,10.64
2019-05-02T08:34:32.590Z,10.74
2019-05-02T08:37:04.888Z,10.81
2019-05-02T08:39:35.855Z,10.81
2019-05-02T08:42:06.759Z,10.91
2019-05-02T08:44:50.359Z,10.88
2019-05-02T08:47:18.719Z,10.92
2019-05-02T08:49:42.896Z,10.96
2019-05-02T08:52:13.862Z,10.98
2019-05-02T08:54:44.775Z,11.05
2019-05-02T08:57:15.690Z,11.04
2019-05-02T08:59:46.628Z,11.01
2019-05-02T09:02:21.051Z,10.96
2019-05-02T09:04:58.301Z,11.02
2019-05-02T09:07:22.839Z,10.97
2019-05-02T09:09:55.559Z,10.88
2019-05-02T09:12:26.601Z,10.94
2019-05-02T09:14:57.527Z,11.08
2019-05-02T09:17:36.021Z,11.15
2019-05-02T09:20:05.070Z,10.95
2019-05-02T09:22:35.405Z,10.92
2019-05-02T09:25:08.150Z,10.85
2019-05-02T09:27:39.144Z,10.89
2019-05-02T09:30:12.199Z,10.99
2019-05-02T09:32:43.238Z,11.20
2019-05-02T09:35:14.140Z,11.14
2019-05-02T09:37:45.045Z,11.09
2019-05-02T09:40:16.854Z,11.13
2019-05-02T09:42:53.265Z,11.19
2019-05-02T09:45:22.754Z,11.26
2019-05-02T09:48:03.892Z,11.29
2019-05-02T09:50:31.227Z,11.19
2019-05-02T09:52:59.135Z,11.27
2019-05-02T09:55:31.753Z,11.33
2019-05-02T09:58:02.879Z,11.33
2019-05-02T10:00:47.379Z,11.17
2019-05-02T10:03:18.854Z,11.28
2019-05-02T10:05:49.797Z,11.45
2019-05-02T10:08:22.813Z,11.56
2019-05-02T10:10:54.594Z,11.46
2019-05-02T10:13:25.526Z,11.40
2019-05-02T10:15:57.195Z,11.40
2019-05-02T10:18:30.186Z,11.50
2019-05-02T10:21:02.808Z,11.54
2019-05-02T10:23:33.929Z,11.69
2019-05-02T10:26:05.068Z,11.79
2019-05-02T10:28:35.981Z,11.74
2019-05-02T10:31:06.971Z,11.88
2019-05-02T10:33:37.899Z,12.08
2019-05-02T10:36:11.890Z,12.06
2019-05-02T10:38:42.701Z,12.15
2019-05-02T10:41:13.693Z,12.08
2019-05-02T10:43:46.890Z,11.98
2019-05-02T10:46:23.008Z,12.00
2019-05-02T10:48:55.594Z,12.02
2019-05-02T10:51:26.432Z,12.00
2019-05-02T10:53:57.384Z,11.99
2019-05-02T10:56:28.292Z,12.04
2019-05-02T10:58:59.228Z,12.14
2019-05-02T11:01:32.358Z,12.21
2019-05-02T11:04:07.957Z,12.22
2019-05-02T11:06:42.734Z,12.18
2019-05-02T11:09:12.039Z,12.23
2019-05-02T11:11:43.260Z,12.34
2019-05-02T11:14:18.365Z,12.41
2019-05-02T11:16:52.510Z,12.53
2019-05-02T11:19:31.835Z,12.57
2019-05-02T11:22:03.010Z,12.64
2019-05-02T11:24:34.484Z,12.76
2019-05-02T11:27:08.141Z,12.75
2019-05-02T11:29:38.037Z,12.82
2019-05-02T11:32:08.966Z,12.91
2019-05-02T11:34:41.966Z,12.98
2019-05-02T11:37:12.472Z,12.96
2019-05-02T11:39:49.985Z,12.90
2019-05-02T11:42:17.638Z,12.95
2019-05-02T11:44:48.625Z,12.98
2019-05-02T11:47:22.763Z,13.23
2019-05-02T11:49:55.914Z,13.37
2019-05-02T11:52:27.357Z,13.40
2019-05-02T11:54:57.660Z,13.67
2019-05-02T11:57:30.768Z,14.26
2019-05-02T12:00:04.907Z,14.40
2019-05-02T12:02:34.623Z,14.52
2019-05-02T12:05:08.708Z,14.77
2019-05-02T12:07:41.694Z,14.90
2019-05-02T12:10:12.578Z,14.93
2019-05-02T12:12:43.599Z,15.30
2019-05-02T12:15:14.502Z,15.43
2019-05-02T12:17:45.430Z,15.65
2019-05-02T12:20:16.336Z,15.47
2019-05-02T12:22:47.287Z,15.78
2019-05-02T12:25:18.164Z,15.60
2019-05-02T12:27:49.092Z,15.60
2019-05-02T12:30:20.009Z,15.77
2019-05-02T12:32:53.070Z,15.92
2019-05-02T12:35:23.901Z,15.89
2019-05-02T12:37:55.359Z,15.76
2019-05-02T12:40:26.337Z,15.55
2019-05-02T12:42:57.248Z,15.50
2019-05-02T12:45:28.238Z,15.33
2019-05-02T12:47:59.188Z,15.31
2019-05-02T12:50:32.104Z,15.11
2019-05-02T12:53:03.061Z,15.06
2019-05-02T12:55:34.070Z,14.96
2019-05-02T12:58:04.973Z,14.96
2019-05-02T13:00:35.878Z,14.90
2019-05-02T13:03:12.556Z,14.76
2019-05-02T13:05:43.462Z,14.65
2019-05-02T13:08:14.382Z,14.51
2019-05-02T13:11:06.686Z,14.30
2019-05-02T13:13:35.889Z,14.25
2019-05-02T13:16:06.922Z,14.12
2019-05-02T13:18:38.032Z,14.12
2019-05-02T13:21:15.180Z,14.14
2019-05-02T13:23:53.886Z,14.06
2019-05-02T13:26:27.125Z,13.88
2019-05-02T13:28:57.420Z,13.89
2019-05-02T13:31:31.994Z,13.75
2019-05-02T13:34:06.545Z,13.79
2019-05-02T13:36:44.736Z,13.72
2019-05-02T13:39:19.417Z,13.65
2019-05-02T13:41:52.053Z,13.63
2019-05-02T13:44:24.808Z,13.61
2019-05-02T13:46:55.718Z,13.55
2019-05-02T13:49:26.619Z,13.61
2019-05-02T13:51:57.527Z,13.63
2019-05-02T13:54:28.422Z,13.58
2019-05-02T13:57:00.001Z,13.57
2019-05-02T13:59:30.919Z,13.47
2019-05-02T14:02:02.750Z,13.44
2019-05-02T14:04:33.104Z,13.39
2019-05-02T14:07:07.725Z,13.34
2019-05-02T14:09:38.129Z,13.29
2019-05-02T14:12:19.449Z,13.20
2019-05-02T14:14:51.924Z,13.14
2019-05-02T14:17:23.070Z,13.04
2019-05-02T14:20:07.433Z,13.08
2019-05-02T14:22:26.575Z,13.00
2019-05-02T14:24:57.472Z,12.89
2019-05-02T14:27:28.386Z,12.88
2019-05-02T14:29:59.315Z,12.94
2019-05-02T14:32:32.657Z,12.87
2019-05-02T14:35:18.641Z,12.84
2019-05-02T14:37:48.925Z,12.87
2019-05-02T14:40:22.408Z,12.86
2019-05-02T14:42:57.836Z,12.89
2019-05-02T14:45:30.706Z,12.89
2019-05-02T14:48:17.744Z,12.89
2019-05-02T14:50:32.083Z,12.87
2019-05-02T14:53:05.742Z,12.82
2019-05-02T14:55:38.282Z,12.76
2019-05-02T14:58:09.187Z,12.66
2019-05-02T15:00:45.819Z,12.62
2019-05-02T15:03:14.337Z,12.65
2019-05-02T15:05:45.247Z,12.60
2019-05-02T15:08:16.160Z,12.65
2019-05-02T15:10:52.493Z,12.70
2019-05-02T15:13:20.062Z,12.73
2019-05-02T15:15:52.896Z,12.72
2019-05-02T15:18:23.595Z,12.71
2019-05-02T15:20:54.505Z,12.75
2019-05-02T15:23:25.422Z,12.83
2019-05-02T15:25:56.325Z,12.75
2019-05-02T15:28:30.571Z,12.74
2019-05-02T15:31:07.399Z,12.73
2019-05-02T15:33:42.051Z,12.79
2019-05-02T15:36:13.904Z,12.74
2019-05-02T15:38:47.364Z,12.79
2019-05-02T15:41:17.436Z,12.72
2019-05-02T15:43:49.331Z,12.65
2019-05-02T15:46:23.694Z,12.62
2019-05-02T15:48:57.113Z,12.71
2019-05-02T15:51:25.633Z,12.66
2019-05-02T15:54:08.363Z,12.66
2019-05-02T15:56:37.892Z,12.76
2019-05-02T15:59:08.809Z,12.84
2019-05-02T16:01:48.028Z,12.84
2019-05-02T16:04:24.147Z,12.88
2019-05-02T16:06:54.018Z,12.89
2019-05-02T16:09:24.926Z,12.84
2019-05-02T16:11:57.080Z,12.83
2019-05-02T16:14:32.401Z,12.97
2019-05-02T16:17:01.842Z,12.97
2019-05-02T16:19:35.664Z,12.96
2019-05-02T16:22:13.933Z,12.96
2019-05-02T16:24:48.841Z,12.91
2019-05-02T16:27:21.959Z,12.96
2019-05-02T16:29:50.109Z,12.88
2019-05-02T16:32:22.661Z,12.86
2019-05-02T16:34:56.067Z,12.80
2019-05-02T16:37:26.979Z,12.78
2019-05-02T16:39:57.890Z,12.74
2019-05-02T16:42:28.784Z,12.83
2019-05-02T16:44:59.693Z,12.86
2019-05-02T16:47:32.460Z,12.81
2019-05-02T16:50:04.835Z,12.82
2019-05-02T16:52:38.027Z,12.82
2019-05-02T16:55:08.401Z,12.81
2019-05-02T16:57:39.303Z,12.87
2019-05-02T17:00:15.183Z,12.81
2019-05-02T17:02:46.562Z,12.83
2019-05-02T17:05:17.466Z,12.85
2019-05-02T17:07:56.744Z,12.91
2019-05-02T17:10:29.289Z,12.86
2019-05-02T17:13:00.946Z,12.84
2019-05-02T17:15:35.236Z,12.86
2019-05-02T17:18:12.757Z,12.82
2019-05-02T17:20:39.820Z,12.89
2019-05-02T17:23:12.693Z,12.86
2019-05-02T17:25:43.334Z,12.92
2019-05-02T17:28:14.232Z,13.00
2019-05-02T17:30:45.135Z,12.98
2019-05-02T17:33:16.501Z,13.02
2019-05-02T17:35:52.274Z,13.09
2019-05-02T17:38:24.948Z,13.04
2019-05-02T17:40:54.494Z,13.04
2019-05-02T17:43:25.702Z,12.95
2019-05-02T17:45:56.635Z,12.92
2019-05-02T17:48:29.347Z,12.86
2019-05-02T17:51:08.466Z,12.79
2019-05-02T17:53:43.230Z,12.70
2019-05-02T17:56:19.985Z,12.63
2019-05-02T17:58:52.861Z,12.62
2019-05-02T18:01:18.815Z,12.65
2019-05-02T18:03:49.715Z,12.67
2019-05-02T18:06:30.757Z,12.63
2019-05-02T18:08:55.383Z,12.56
2019-05-02T18:11:29.699Z,12.59
2019-05-02T18:13:59.004Z,12.55
2019-05-02T18:16:29.907Z,12.60
2019-05-02T18:19:01.812Z,12.56
2019-05-02T18:21:32.927Z,12.54
2019-05-02T18:24:06.039Z,12.51
2019-05-02T18:26:37.562Z,12.57
2019-05-02T18:29:08.468Z,12.49
2019-05-02T18:31:42.120Z,12.47
2019-05-02T18:34:20.362Z,12.46
2019-05-02T18:36:44.992Z,12.40
2019-05-02T18:39:15.890Z,12.41
2019-05-02T18:41:46.806Z,12.17
2019-05-02T18:44:18.725Z,11.89
2019-05-02T18:46:49.704Z,11.69
2019-05-02T18:49:21.893Z,11.65
2019-05-02T18:51:57.267Z,11.56
2019-05-02T18:54:25.844Z,11.48
2019-05-02T18:56:56.766Z,11.49
2019-05-02T18:59:27.671Z,11.54
2019-05-02T19:01:59.821Z,11.57
2019-05-02T19:04:38.146Z,11.58
2019-05-02T19:07:07.461Z,11.60
2019-05-02T19:09:48.183Z,11.55
2019-05-02T19:12:13.575Z,11.58
2019-05-02T19:14:42.022Z,11.53
2019-05-02T19:17:12.925Z,11.44
2019-05-02T19:19:43.848Z,11.39
2019-05-02T19:22:17.068Z,11.37
2019-05-02T19:24:47.365Z,11.31
2019-05-02T19:27:21.059Z,11.20
2019-05-02T19:29:54.611Z,11.33
2019-05-02T19:32:28.217Z,11.40
2019-05-02T19:34:57.709Z,11.53
2019-05-02T19:37:31.514Z,11.50
2019-05-02T19:40:02.555Z,11.55
2019-05-02T19:42:33.510Z,11.45
2019-05-02T19:45:11.603Z,11.40
2019-05-02T19:47:38.650Z,11.40
2019-05-02T19:50:33.711Z,11.51
2019-05-02T19:53:04.391Z,11.61
2019-05-02T19:55:35.525Z,11.37
2019-05-02T19:58:06.684Z,11.49
2019-05-02T20:00:42.275Z,11.53
2019-05-02T20:03:13.703Z,11.50
2019-05-02T20:05:42.907Z,11.47
2019-05-02T20:08:14.607Z,11.47
2019-05-02T20:10:49.227Z,11.40
2019-05-02T20:13:20.331Z,11.18
2019-05-02T20:15:57.140Z,11.03
2019-05-02T20:18:43.850Z,10.84
2019-05-02T20:21:23.461Z,10.65
2019-05-02T20:23:47.062Z,10.60
2019-05-02T20:26:17.950Z,10.50
2019-05-02T20:28:48.867Z,10.39
2019-05-02T20:31:21.708Z,10.27
2019-05-02T20:33:52.412Z,10.39
2019-05-02T20:36:23.299Z,10.31
2019-05-02T20:38:55.591Z,10.32
2019-05-02T20:41:26.484Z,10.47
2019-05-02T20:43:57.379Z,10.43
2019-05-02T20:46:28.302Z,10.50
2019-05-02T20:48:59.232Z,10.39
2019-05-02T20:51:31.938Z,10.31
2019-05-02T20:54:02.729Z,10.07
2019-05-02T20:56:33.654Z,10.14
2019-05-02T20:59:04.537Z,10.26
2019-05-02T21:01:35.477Z,10.22
2019-05-02T21:04:06.393Z,10.33
2019-05-02T21:06:41.993Z,10.45
2019-05-02T21:09:15.829Z,10.19
2019-05-02T21:11:52.469Z,9.97
2019-05-02T21:14:23.446Z,9.95
2019-05-02T21:16:54.399Z,10.08
2019-05-02T21:19:25.296Z,10.22
2019-05-02T21:21:56.349Z,9.81
2019-05-02T21:24:27.245Z,9.71
2019-05-02T21:26:58.129Z,9.85
2019-05-02T21:29:29.023Z,10.10
2019-05-02T21:31:59.916Z,10.28
2019-05-02T21:34:31.856Z,10.49
2019-05-02T21:37:02.795Z,10.56
2019-05-02T21:39:33.684Z,9.96
2019-05-02T21:42:04.630Z,10.17
2019-05-02T21:44:35.550Z,10.20
2019-05-02T21:47:06.460Z,9.96
2019-05-02T21:49:39.006Z,9.88
2019-05-02T21:52:17.387Z,10.03
2019-05-02T21:54:49.938Z,9.88
2019-05-02T21:57:22.676Z,9.90
2019-05-02T21:59:54.559Z,10.13
2019-05-02T22:02:25.554Z,10.12
2019-05-02T22:04:56.471Z,9.85
2019-05-02T22:07:27.460Z,9.89
2019-05-02T22:09:58.326Z,9.95
2019-05-02T22:12:29.255Z,10.06
2019-05-02T22:15:02.345Z,9.66
2019-05-02T22:17:33.308Z,9.53
2019-05-02T22:20:05.993Z,9.68
2019-05-02T22:22:36.898Z,9.82
2019-05-02T22:25:08.169Z,9.48
2019-05-02T22:27:39.038Z,9.46
2019-05-02T22:30:09.943Z,9.75
2019-05-02T22:32:42.620Z,9.74
2019-05-02T22:35:13.602Z,9.50
2019-05-02T22:37:46.137Z,9.53
2019-05-02T22:40:17.811Z,9.40
2019-05-02T22:42:52.349Z,9.55
2019-05-02T22:45:23.278Z,9.42
2019-05-02T22:47:54.439Z,9.72
2019-05-02T22:50:25.327Z,9.80
2019-05-02T22:52:56.204Z,9.72
2019-05-02T22:55:27.084Z,9.67
2019-05-02T22:57:57.956Z,9.71
2019-05-02T23:00:28.851Z,9.72
2019-05-02T23:03:01.781Z,9.77
2019-05-02T23:05:34.409Z,9.70
2019-05-02T23:08:05.367Z,9.73
2019-05-02T23:10:36.327Z,9.95
2019-05-02T23:13:07.202Z,9.68
2019-05-02T23:15:38.088Z,9.70
2019-05-02T23:18:08.968Z,9.55
2019-05-02T23:20:42.075Z,9.46
2019-05-02T23:23:12.573Z,9.62
2019-05-02T23:26:01.328Z,9.55
2019-05-02T23:28:33.845Z,9.57
2019-05-02T23:31:04.795Z,9.55
2019-05-02T23:33:53.635Z,9.49
2019-05-02T23:36:24.511Z,9.65
2019-05-02T23:38:55.395Z,9.52
2019-05-02T23:41:26.348Z,9.37
2019-05-02T23:43:57.222Z,9.24
2019-05-02T23:46:28.104Z,9.42
2019-05-02T23:48:58.984Z,9.41
2019-05-02T23:51:31.895Z,9.45
2019-05-02T23:54:02.452Z,9.36
2019-05-02T23:56:33.361Z,9.11
2019-05-02T23:59:04.240Z,9.40
